Time;durP1;ratioP1;P1;durP2;ratioP2;P2;SDS_P1;SDS_P2;PMS_P1;PMS_P2;Temp;Humidity;BMP_temperature;BMP_pressure;BME280_temperature;BME280_humidity;BME280_pressure;Samples;Min_cycle;Max_cycle;Signal;HPM_P1;HPM_P2
2022/07/07 00:02:31;;;;;;;2.57;1.87;;;;;18.40;101485.00;;;;4923103;28;20381;-67
2022/07/07 00:05:18;;;;;;;2.83;2.30;;;;;18.50;101480.00;;;;4937179;28;20324;-67
2022/07/07 00:08:04;;;;;;;2.83;2.30;;;;;18.40;101474.00;;;;4917499;28;20240;-66
2022/07/07 00:10:51;;;;;;;3.00;2.00;;;;;18.40;101473.00;;;;4911907;28;20260;-66
2022/07/07 00:13:37;;;;;;;5.67;2.17;;;;;18.40;101471.00;;;;4912997;28;20230;-66
2022/07/07 00:16:25;;;;;;;4.10;2.30;;;;;18.40;101467.00;;;;4923566;28;20238;-67
2022/07/07 00:19:12;;;;;;;3.60;2.60;;;;;18.40;101456.00;;;;4935720;28;20366;-67
2022/07/07 00:21:58;;;;;;;5.03;2.07;;;;;18.40;101450.00;;;;4927924;28;20256;-67
2022/07/07 00:24:45;;;;;;;5.10;2.10;;;;;18.30;101446.00;;;;4922213;28;20239;-67
2022/07/07 00:27:31;;;;;;;3.00;2.10;;;;;18.40;101447.00;;;;4926755;28;20400;-67
2022/07/07 00:30:17;;;;;;;3.00;2.00;;;;;18.30;101442.00;;;;4922758;28;20818;-67
2022/07/07 00:33:05;;;;;;;2.50;2.10;;;;;18.30;101443.00;;;;4928489;28;20240;-66
2022/07/07 00:35:52;;;;;;;3.00;1.93;;;;;18.20;101439.00;;;;4935030;28;20239;-66
2022/07/07 00:38:38;;;;;;;4.03;1.87;;;;;18.20;101427.00;;;;4932080;28;20236;-67
2022/07/07 00:41:24;;;;;;;2.50;2.00;;;;;18.20;101423.00;;;;4938898;28;20315;-66
2022/07/07 00:44:14;;;;;;;2.23;2.03;;;;;18.20;101415.00;;;;4941804;28;20866;-67
2022/07/07 00:47:00;;;;;;;2.93;2.13;;;;;18.20;101421.00;;;;4928952;28;20611;-64
2022/07/07 00:49:49;;;;;;;2.37;2.00;;;;;18.20;101409.00;;;;4925971;28;20237;-66
2022/07/07 00:52:35;;;;;;;4.07;2.10;;;;;18.30;101393.00;;;;4924900;28;20348;-66
2022/07/07 00:55:21;;;;;;;3.33;2.40;;;;;18.30;101394.00;;;;4928156;28;20248;-66
2022/07/07 00:58:08;;;;;;;1.90;1.77;;;;;18.20;101391.00;;;;4932999;28;20713;-65
2022/07/07 01:00:55;;;;;;;3.47;2.60;;;;;18.20;101384.00;;;;4931660;28;20233;-67
2022/07/07 01:03:41;;;;;;;4.47;2.00;;;;;18.30;101381.00;;;;4922242;28;20732;-67
2022/07/07 01:06:30;;;;;;;2.77;2.03;;;;;18.40;101376.00;;;;4931332;28;21718;-67
2022/07/07 01:09:17;;;;;;;2.57;2.10;;;;;18.40;101366.00;;;;4932070;28;20760;-67
2022/07/07 01:12:04;;;;;;;5.13;2.40;;;;;18.30;101382.00;;;;4935415;28;20575;-67
2022/07/07 01:14:51;;;;;;;2.73;2.23;;;;;18.40;101369.00;;;;4925064;28;20370;-66
2022/07/07 01:17:37;;;;;;;2.20;2.00;;;;;18.30;101375.00;;;;4931035;28;20709;-67
2022/07/07 01:20:24;;;;;;;3.60;2.30;;;;;18.30;101377.00;;;;4930648;28;20237;-67
2022/07/07 01:23:12;;;;;;;2.27;1.73;;;;;18.40;101374.00;;;;4937960;28;20236;-66
2022/07/07 01:25:59;;;;;;;2.70;2.20;;;;;18.40;101371.00;;;;4931588;28;20248;-67
2022/07/07 01:28:45;;;;;;;2.10;1.90;;;;;18.40;101368.00;;;;4932322;28;20329;-66
2022/07/07 01:31:31;;;;;;;2.30;1.90;;;;;18.30;101364.00;;;;4927823;28;20245;-66
2022/07/07 01:34:18;;;;;;;3.40;2.00;;;;;18.30;101352.00;;;;4932225;28;20240;-66
2022/07/07 01:37:04;;;;;;;2.10;1.90;;;;;18.30;101344.00;;;;4926927;28;20610;-65
2022/07/07 01:39:53;;;;;;;2.47;2.00;;;;;18.40;101341.00;;;;4931691;28;20368;-67
2022/07/07 01:42:40;;;;;;;2.70;2.00;;;;;18.40;101332.00;;;;4926536;28;20280;-67
2022/07/07 01:45:26;;;;;;;2.30;1.80;;;;;18.50;101334.00;;;;4935037;28;20364;-67
2022/07/07 01:48:12;;;;;;;2.30;2.10;;;;;18.50;101325.00;;;;4938446;28;20243;-66
2022/07/07 01:50:58;;;;;;;2.63;1.90;;;;;18.50;101330.00;;;;4939447;28;20681;-65
2022/07/07 01:53:45;;;;;;;3.40;2.20;;;;;18.50;101316.00;;;;4927112;28;20255;-67
2022/07/07 01:56:32;;;;;;;2.60;2.13;;;;;18.40;101307.00;;;;4930457;28;20232;-67
2022/07/07 01:59:19;;;;;;;1.83;1.67;;;;;18.40;101324.00;;;;4939976;28;20263;-66
2022/07/07 02:02:05;;;;;;;2.10;1.90;;;;;18.50;101318.00;;;;4937690;28;20236;-67
2022/07/07 02:04:52;;;;;;;4.83;1.90;;;;;18.50;101318.00;;;;4924026;28;20303;-66
2022/07/07 02:07:38;;;;;;;2.37;2.07;;;;;18.70;101317.00;;;;4932579;28;20256;-67
2022/07/07 02:13:30;;;;;;;2.37;2.07;;;;;18.60;101301.00;;;;4931382;29;20336;-67
2022/07/07 02:16:18;;;;;;;3.57;2.10;;;;;18.60;101301.00;;;;4936208;28;20240;-67
2022/07/07 02:19:06;;;;;;;2.43;1.87;;;;;18.60;101298.00;;;;4933653;28;20236;-66
2022/07/07 02:21:52;;;;;;;7.43;2.60;;;;;18.50;101290.00;;;;4922979;29;20236;-67
2022/07/07 02:24:39;;;;;;;4.47;2.10;;;;;18.50;101297.00;;;;4934335;28;20244;-67
2022/07/07 02:27:25;;;;;;;2.77;2.10;;;;;18.40;101297.00;;;;4931618;28;20247;-67
2022/07/07 02:30:13;;;;;;;6.00;2.13;;;;;18.40;101298.00;;;;4938851;28;20315;-67
2022/07/07 02:32:59;;;;;;;2.97;2.20;;;;;18.40;101303.00;;;;4929857;28;20237;-67
2022/07/07 02:35:46;;;;;;;4.00;2.20;;;;;18.40;101292.00;;;;4947466;28;20361;-67
2022/07/07 02:38:33;;;;;;;4.33;2.53;;;;;18.40;101295.00;;;;4939846;28;20710;-67
2022/07/07 02:41:20;;;;;;;4.13;2.90;;;;;18.50;101299.00;;;;4928989;28;20743;-66
2022/07/07 02:44:06;;;;;;;4.40;3.13;;;;;18.50;101289.00;;;;4943473;28;20236;-67
2022/07/07 02:46:54;;;;;;;3.33;2.23;;;;;18.50;101286.00;;;;4935826;28;20280;-67
2022/07/07 02:49:40;;;;;;;5.77;2.97;;;;;18.50;101286.00;;;;4934042;28;20377;-67
2022/07/07 02:52:27;;;;;;;6.17;2.53;;;;;18.50;101288.00;;;;4940447;28;20324;-67
2022/07/07 02:55:13;;;;;;;3.10;2.13;;;;;18.50;101289.00;;;;4933094;28;20241;-66
2022/07/07 02:58:00;;;;;;;5.47;3.23;;;;;18.50;101281.00;;;;4931596;28;20236;-67
2022/07/07 03:00:46;;;;;;;5.40;3.30;;;;;18.60;101275.00;;;;4935274;28;20243;-68
2022/07/07 03:03:34;;;;;;;5.70;2.93;;;;;18.60;101275.00;;;;4941032;28;20232;-67
2022/07/07 03:06:21;;;;;;;5.30;2.83;;;;;18.60;101274.00;;;;4941043;28;20239;-67
2022/07/07 03:09:07;;;;;;;4.53;2.60;;;;;18.50;101271.00;;;;4936340;28;20249;-67
2022/07/07 03:11:53;;;;;;;5.57;3.60;;;;;18.60;101268.00;;;;4924314;28;20288;-67
2022/07/07 03:14:39;;;;;;;6.17;3.47;;;;;18.60;101265.00;;;;4935392;28;20288;-67
2022/07/07 03:17:26;;;;;;;5.83;3.50;;;;;18.60;101259.00;;;;4937712;28;20316;-67
2022/07/07 03:20:15;;;;;;;7.27;4.10;;;;;18.60;101257.00;;;;4929721;28;20606;-67
2022/07/07 03:23:02;;;;;;;10.37;3.60;;;;;18.60;101264.00;;;;4934302;28;20394;-67
2022/07/07 03:25:48;;;;;;;6.23;3.70;;;;;18.60;101251.00;;;;4922209;28;20725;-67
2022/07/07 03:28:35;;;;;;;6.70;3.80;;;;;18.70;101251.00;;;;4943162;28;20310;-67
2022/07/07 03:31:21;;;;;;;4.63;3.00;;;;;18.50;101254.00;;;;4933215;28;20741;-67
2022/07/07 03:34:07;;;;;;;5.53;3.80;;;;;18.60;101237.00;;;;4941682;28;20237;-66
2022/07/07 03:36:55;;;;;;;6.57;4.13;;;;;18.60;101243.00;;;;4926729;28;20240;-67
2022/07/07 03:39:41;;;;;;;7.10;3.93;;;;;18.60;101235.00;;;;4935689;28;20236;-68
2022/07/07 03:42:28;;;;;;;5.20;3.20;;;;;18.50;101237.00;;;;4938684;28;20897;-66
2022/07/07 03:45:14;;;;;;;6.37;4.20;;;;;18.60;101236.00;;;;4927518;28;20253;-67
2022/07/07 03:48:00;;;;;;;7.40;4.20;;;;;18.60;101228.00;;;;4933589;28;20309;-67
2022/07/07 03:50:47;;;;;;;7.20;3.90;;;;;18.60;101223.00;;;;4926887;28;21138;-66
2022/07/07 03:53:35;;;;;;;8.27;4.70;;;;;18.70;101218.00;;;;4934577;28;20832;-68
2022/07/07 03:56:21;;;;;;;6.80;4.37;;;;;18.70;101226.00;;;;4935806;28;20592;-66
2022/07/07 03:59:07;;;;;;;6.23;4.20;;;;;18.60;101234.00;;;;4935568;28;20232;-68
2022/07/07 04:01:54;;;;;;;6.17;4.00;;;;;18.60;101228.00;;;;4931592;28;20246;-67
2022/07/07 04:04:40;;;;;;;7.53;4.30;;;;;18.60;101216.00;;;;4939548;28;20244;-68
2022/07/07 04:07:26;;;;;;;7.40;4.53;;;;;18.50;101210.00;;;;4928509;28;20264;-67
2022/07/07 04:10:15;;;;;;;8.10;4.40;;;;;18.50;101222.00;;;;4934883;28;20301;-67
2022/07/07 04:13:01;;;;;;;11.17;5.00;;;;;18.40;101212.00;;;;4924138;28;20231;-67
2022/07/07 04:15:48;;;;;;;6.90;4.17;;;;;18.50;101209.00;;;;4931488;28;20219;-68
2022/07/07 04:18:35;;;;;;;7.83;4.33;;;;;18.50;101212.00;;;;4937264;28;20377;-67
2022/07/07 04:21:21;;;;;;;10.37;5.07;;;;;18.50;101222.00;;;;4941168;28;20317;-68
2022/07/07 04:24:07;;;;;;;6.70;4.47;;;;;18.40;101204.00;;;;4932067;28;20379;-69
2022/07/07 04:26:55;;;;;;;11.03;5.70;;;;;18.30;101211.00;;;;4915635;29;20845;-67
2022/07/07 04:29:41;;;;;;;11.50;5.10;;;;;18.30;101217.00;;;;4941434;28;20237;-69
2022/07/07 04:32:28;;;;;;;10.03;4.90;;;;;18.30;101251.00;;;;4927258;28;20265;-68
2022/07/07 04:35:14;;;;;;;11.07;5.67;;;;;18.20;101258.00;;;;4936238;28;20248;-69
2022/07/07 04:38:00;;;;;;;9.00;5.17;;;;;18.10;101243.00;;;;4927023;28;20764;-69
2022/07/07 04:40:47;;;;;;;6.50;4.07;;;;;18.00;101244.00;;;;4933618;28;20299;-69
2022/07/07 04:43:34;;;;;;;6.90;4.20;;;;;17.90;101238.00;;;;4944741;28;20228;-69
2022/07/07 04:46:21;;;;;;;6.40;4.10;;;;;18.00;101244.00;;;;4937735;28;20232;-68
2022/07/07 04:49:07;;;;;;;6.23;4.00;;;;;18.00;101234.00;;;;4914759;29;20238;-69
2022/07/07 04:51:56;;;;;;;6.03;3.90;;;;;18.00;101242.00;;;;4911766;29;20233;-69
2022/07/07 04:54:43;;;;;;;6.63;4.77;;;;;17.90;101233.00;;;;4912824;29;20224;-69
2022/07/07 04:57:29;;;;;;;6.17;4.40;;;;;18.00;101237.00;;;;4914337;29;20260;-69
2022/07/07 05:00:17;;;;;;;5.30;4.27;;;;;17.90;101231.00;;;;4929161;28;20311;-69
2022/07/07 05:03:04;;;;;;;7.83;4.27;;;;;18.00;101244.00;;;;4916769;29;20234;-68
2022/07/07 05:05:50;;;;;;;7.97;4.23;;;;;17.90;101247.00;;;;4919418;28;20724;-69
2022/07/07 05:08:36;;;;;;;7.87;4.43;;;;;18.00;101243.00;;;;4936113;28;20575;-69
2022/07/07 05:11:23;;;;;;;5.27;3.97;;;;;18.00;101250.00;;;;4917461;28;20746;-66
2022/07/07 05:14:09;;;;;;;5.70;3.73;;;;;17.90;101264.00;;;;4914880;29;20252;-68
2022/07/07 05:16:57;;;;;;;6.47;3.70;;;;;17.90;101256.00;;;;4912532;29;20440;-69
2022/07/07 05:19:43;;;;;;;4.03;3.27;;;;;17.90;101253.00;;;;4922853;28;20306;-69
2022/07/07 05:22:29;;;;;;;4.90;3.40;;;;;17.90;101244.00;;;;4920499;28;20246;-68
2022/07/07 05:25:16;;;;;;;3.20;2.87;;;;;17.80;101252.00;;;;4920373;28;20241;-69
2022/07/07 05:28:02;;;;;;;4.20;2.80;;;;;17.90;101244.00;;;;4923919;28;20366;-68
2022/07/07 05:30:49;;;;;;;4.90;3.07;;;;;17.90;101245.00;;;;4917284;28;20240;-68
2022/07/07 05:33:37;;;;;;;3.33;2.73;;;;;18.00;101244.00;;;;4930544;28;20232;-68
2022/07/07 05:36:23;;;;;;;5.07;2.80;;;;;18.00;101243.00;;;;4930740;28;20229;-69
2022/07/07 05:39:12;;;;;;;6.13;3.20;;;;;18.10;101246.00;;;;4914938;29;20305;-69
2022/07/07 05:41:59;;;;;;;3.37;2.57;;;;;18.00;101253.00;;;;4923599;28;20741;-68
2022/07/07 05:44:45;;;;;;;3.83;2.83;;;;;18.00;101259.00;;;;4932206;28;20280;-69
2022/07/07 05:47:31;;;;;;;5.60;3.07;;;;;18.00;101264.00;;;;4936812;28;20284;-68
2022/07/07 05:50:19;;;;;;;4.23;2.50;;;;;18.00;101261.00;;;;4933271;28;20237;-69
2022/07/07 05:53:05;;;;;;;4.07;2.80;;;;;18.00;101265.00;;;;4918476;28;20263;-68
2022/07/07 05:55:51;;;;;;;3.03;2.57;;;;;18.00;101253.00;;;;4917103;28;20260;-69
2022/07/07 05:58:38;;;;;;;3.43;2.60;;;;;18.00;101271.00;;;;4921944;28;20343;-69
2022/07/07 06:01:24;;;;;;;7.87;4.63;;;;;18.00;101260.00;;;;4911053;29;20314;-68
2022/07/07 06:04:10;;;;;;;3.10;2.80;;;;;18.10;101257.00;;;;4916870;28;20236;-69
2022/07/07 06:06:58;;;;;;;3.20;2.90;;;;;18.00;101259.00;;;;4932495;28;20349;-70
2022/07/07 06:09:45;;;;;;;4.43;2.60;;;;;17.90;101264.00;;;;4932947;28;20244;-69
2022/07/07 06:12:31;;;;;;;3.47;2.40;;;;;17.90;101272.00;;;;4917347;29;20285;-69
2022/07/07 06:15:20;;;;;;;6.50;2.87;;;;;17.90;101279.00;;;;4934782;28;20232;-70
2022/07/07 06:18:07;;;;;;;3.33;2.53;;;;;18.00;101288.00;;;;4931223;28;20710;-69
2022/07/07 06:20:55;;;;;;;3.67;2.40;;;;;18.00;101286.00;;;;4934101;28;20328;-70
2022/07/07 06:23:42;;;;;;;2.57;2.37;;;;;18.20;101290.00;;;;4928935;28;20323;-70
2022/07/07 06:26:29;;;;;;;4.43;2.00;;;;;18.30;101296.00;;;;4945897;28;20236;-70
2022/07/07 06:29:15;;;;;;;2.93;2.20;;;;;18.20;101298.00;;;;4935412;28;20270;-69
2022/07/07 06:32:01;;;;;;;3.90;2.03;;;;;18.40;101291.00;;;;4929753;28;20240;-68
2022/07/07 06:34:48;;;;;;;3.03;2.37;;;;;18.40;101298.00;;;;4941603;28;20232;-69
2022/07/07 06:37:34;;;;;;;5.00;2.70;;;;;18.30;101308.00;;;;4940079;28;20228;-69
2022/07/07 06:40:22;;;;;;;5.17;1.90;;;;;18.30;101327.00;;;;4937451;28;20740;-69
2022/07/07 06:43:08;;;;;;;3.07;1.90;;;;;18.20;101335.00;;;;4924433;29;20615;-70
2022/07/07 06:45:55;;;;;;;1.50;1.40;;;;;18.10;101322.00;;;;4938512;28;20308;-68
2022/07/07 06:48:41;;;;;;;1.50;1.40;;;;;17.90;101322.00;;;;4942359;28;20280;-69
2022/07/07 06:51:28;;;;;;;4.27;1.27;;;;;17.90;101328.00;;;;4939365;28;20261;-69
2022/07/07 06:54:14;;;;;;;2.10;1.10;;;;;18.10;101323.00;;;;4933087;28;20232;-69
2022/07/07 06:57:02;;;;;;;2.13;1.30;;;;;17.90;101323.00;;;;4932390;28;20237;-69
2022/07/07 06:59:48;;;;;;;2.40;1.40;;;;;18.10;101335.00;;;;4944324;28;20286;-67
2022/07/07 07:02:34;;;;;;;2.57;1.33;;;;;18.20;101338.00;;;;4938041;28;20241;-69
2022/07/07 07:05:21;;;;;;;1.60;1.20;;;;;18.30;101342.00;;;;4940522;28;20233;-68
2022/07/07 07:08:07;;;;;;;2.10;1.30;;;;;18.20;101342.00;;;;4940648;28;20241;-69
2022/07/07 07:10:53;;;;;;;1.73;1.17;;;;;18.20;101343.00;;;;4932146;28;20343;-68
2022/07/07 07:13:41;;;;;;;1.20;1.03;;;;;18.30;101351.00;;;;4937357;28;20236;-67
2022/07/07 07:16:28;;;;;;;3.27;1.30;;;;;18.30;101348.00;;;;4930182;28;20797;-69
2022/07/07 07:19:14;;;;;;;1.17;1.07;;;;;18.20;101367.00;;;;4923368;28;20320;-68
2022/07/07 07:22:00;;;;;;;2.60;1.20;;;;;18.50;101355.00;;;;4930795;28;20296;-68
2022/07/07 07:24:46;;;;;;;1.90;1.10;;;;;18.50;101365.00;;;;4934908;28;20866;-68
2022/07/07 07:27:34;;;;;;;1.60;1.10;;;;;18.40;101360.00;;;;4935384;28;20232;-68
2022/07/07 07:30:21;;;;;;;3.80;1.20;;;;;18.50;101366.00;;;;4929753;28;20241;-68
2022/07/07 07:33:09;;;;;;;4.07;1.40;;;;;18.40;101380.00;;;;4930571;28;20305;-69
2022/07/07 07:35:55;;;;;;;4.20;1.50;;;;;18.30;101391.00;;;;4930230;28;20248;-69
2022/07/07 07:38:43;;;;;;;1.47;1.30;;;;;18.10;101388.00;;;;4923548;28;20237;-69
2022/07/07 07:41:30;;;;;;;1.63;1.20;;;;;17.80;101386.00;;;;4942532;28;20232;-68
2022/07/07 07:45:09;;;;;;;1.73;1.20;;;;;17.60;101378.00;;;;4933822;28;21001;-69
2022/07/07 07:47:24;;;;;;;1.53;0.80;;;;;17.50;101403.00;;;;4930211;28;20240;-70
2022/07/07 07:50:12;;;;;;;2.40;1.27;;;;;17.50;101395.00;;;;4930670;28;20275;-69
2022/07/07 07:52:59;;;;;;;2.23;1.20;;;;;17.60;101402.00;;;;4942641;28;20236;-69
2022/07/07 07:55:45;;;;;;;4.17;1.20;;;;;17.70;101409.00;;;;4929553;28;20305;-69
2022/07/07 07:58:32;;;;;;;1.63;1.10;;;;;17.90;101405.00;;;;4933589;28;20245;-67
2022/07/07 08:01:18;;;;;;;1.33;1.20;;;;;17.90;101395.00;;;;4918335;28;20734;-69
2022/07/07 08:04:06;;;;;;;4.07;1.20;;;;;18.10;101402.00;;;;4935943;28;20239;-69
2022/07/07 08:06:53;;;;;;;1.10;0.93;;;;;18.10;101406.00;;;;4929496;28;20814;-69
2022/07/07 08:09:39;;;;;;;2.67;1.10;;;;;18.10;101414.00;;;;4937197;28;20277;-68
2022/07/07 08:12:26;;;;;;;1.50;0.90;;;;;18.10;101430.00;;;;4940735;28;20260;-70
2022/07/07 08:15:13;;;;;;;1.20;1.00;;;;;18.00;101422.00;;;;4924758;28;20236;-69
2022/07/07 08:17:59;;;;;;;2.57;1.00;;;;;18.00;101423.00;;;;4924773;28;20259;-69
2022/07/07 08:20:47;;;;;;;2.07;1.10;;;;;18.10;101417.00;;;;4932389;28;20722;-70
2022/07/07 08:23:33;;;;;;;3.27;1.70;;;;;18.20;101429.00;;;;4935246;28;20232;-69
2022/07/07 08:26:19;;;;;;;5.00;1.20;;;;;18.30;101424.00;;;;4938061;28;20607;-69
2022/07/07 08:29:06;;;;;;;1.87;1.33;;;;;18.80;101416.00;;;;4935478;28;20438;-68
2022/07/07 08:31:52;;;;;;;2.63;1.20;;;;;19.20;101419.00;;;;4945499;28;20621;-70
2022/07/07 08:34:40;;;;;;;2.07;1.20;;;;;19.00;101428.00;;;;4940969;28;20236;-69
2022/07/07 08:37:29;;;;;;;1.37;1.20;;;;;18.60;101437.00;;;;4936578;28;20245;-69
2022/07/07 08:40:16;;;;;;;3.47;1.10;;;;;18.40;101461.00;;;;4930938;28;20236;-68
2022/07/07 08:43:03;;;;;;;1.30;1.20;;;;;18.50;101456.00;;;;4947435;28;20231;-70
2022/07/07 08:45:49;;;;;;;2.00;1.27;;;;;18.20;101454.00;;;;4936622;28;20275;-68
2022/07/07 08:48:36;;;;;;;3.43;1.50;;;;;18.30;101450.00;;;;4937468;28;20605;-69
2022/07/07 08:51:23;;;;;;;4.30;1.70;;;;;18.30;101462.00;;;;4939089;28;20235;-69
2022/07/07 08:54:12;;;;;;;5.43;1.47;;;;;18.40;101454.00;;;;4927159;28;20245;-70
2022/07/07 08:56:58;;;;;;;4.10;1.40;;;;;18.50;101458.00;;;;4935340;28;20216;-69
2022/07/07 08:59:44;;;;;;;3.10;1.50;;;;;18.70;101462.00;;;;4940331;28;20228;-69
2022/07/07 09:02:30;;;;;;;2.67;1.90;;;;;18.80;101477.00;;;;4942633;28;20239;-70
2022/07/07 09:05:16;;;;;;;3.77;2.20;;;;;18.90;101480.00;;;;4916683;29;20232;-69
2022/07/07 09:08:05;;;;;;;4.97;1.47;;;;;18.70;101477.00;;;;4925623;28;20240;-70
2022/07/07 09:10:53;;;;;;;1.33;1.17;;;;;18.90;101471.00;;;;4929029;28;20241;-69
2022/07/07 09:13:39;;;;;;;3.77;1.40;;;;;18.90;101485.00;;;;4935613;28;20581;-68
2022/07/07 09:16:26;;;;;;;2.30;1.20;;;;;19.00;101475.00;;;;4941410;28;20236;-68
2022/07/07 09:19:18;;;;;;;1.63;1.20;;;;;19.10;101487.00;;;;4929702;28;20280;-68
2022/07/07 09:22:05;;;;;;;4.07;1.33;;;;;19.20;101484.00;;;;4930981;28;20249;-68
2022/07/07 09:24:55;;;;;;;3.07;1.67;;;;;19.50;101490.00;;;;4934103;28;20857;-68
